createdAt,value
2019-05-17T00:02:17.479Z,98.38
2019-05-17T00:04:47.302Z,98.37
2019-05-17T00:07:16.871Z,98.43
2019-05-17T00:09:47.863Z,98.20
2019-05-17T00:12:17.528Z,98.44
2019-05-17T00:14:47.329Z,98.52
2019-05-17T00:17:17.372Z,98.63
2019-05-17T00:19:46.950Z,98.60
2019-05-17T00:22:16.831Z,98.59
2019-05-17T00:24:47.693Z,98.53
2019-05-17T00:27:17.394Z,98.49
2019-05-17T00:29:46.783Z,98.55
2019-05-17T00:32:17.121Z,98.39
2019-05-17T00:34:47.056Z,98.24
2019-05-17T00:37:17.367Z,98.38
2019-05-17T00:39:47.279Z,98.26
2019-05-17T00:42:17.163Z,98.26
2019-05-17T00:44:47.349Z,98.33
2019-05-17T00:47:17.242Z,98.45
2019-05-17T00:49:46.802Z,98.57
2019-05-17T00:52:16.839Z,98.54
2019-05-17T00:54:46.949Z,98.81
2019-05-17T00:57:16.678Z,98.84
2019-05-17T00:59:47.618Z,98.93
2019-05-17T01:02:17.138Z,98.97
2019-05-17T01:04:47.568Z,99.06
2019-05-17T01:07:17.822Z,99.08
2019-05-17T01:09:47.400Z,99.12
2019-05-17T01:12:16.707Z,99.00
2019-05-17T01:14:46.685Z,98.94
2019-05-17T01:17:16.574Z,98.72
2019-05-17T01:19:47.218Z,98.85
2019-05-17T01:22:17.048Z,98.78
2019-05-17T01:24:46.544Z,97.88
2019-05-17T01:27:17.249Z,97.73
2019-05-17T01:29:46.743Z,98.25
2019-05-17T01:32:17.207Z,98.28
2019-05-17T01:34:47.076Z,97.85
2019-05-17T01:37:17.143Z,97.80
2019-05-17T01:39:46.961Z,97.93
2019-05-17T01:42:17.157Z,97.96
2019-05-17T01:44:47.224Z,97.94
2019-05-17T01:47:16.833Z,98.06
2019-05-17T01:49:46.959Z,97.80
2019-05-17T01:52:16.868Z,97.73
2019-05-17T01:54:46.932Z,97.63
2019-05-17T01:57:16.972Z,97.80
2019-05-17T01:59:46.824Z,97.73
2019-05-17T02:02:19.762Z,98.10
2019-05-17T02:04:49.745Z,97.74
2019-05-17T02:07:19.071Z,97.43
2019-05-17T02:09:48.433Z,97.86
2019-05-17T02:12:17.765Z,98.29
2019-05-17T02:14:47.162Z,98.45
2019-05-17T02:17:17.452Z,98.21
2019-05-17T02:19:46.969Z,97.71
2019-05-17T02:22:16.843Z,98.11
2019-05-17T02:24:46.530Z,98.54
2019-05-17T02:27:16.038Z,98.52
2019-05-17T02:29:45.535Z,98.17
2019-05-17T02:32:15.006Z,97.87
2019-05-17T02:34:44.385Z,98.30
2019-05-17T02:37:13.804Z,98.24
2019-05-17T02:39:53.979Z,98.25
2019-05-17T02:42:14.220Z,97.70
2019-05-17T02:44:43.934Z,97.41
2019-05-17T02:47:13.454Z,97.05
2019-05-17T02:49:42.762Z,96.51
2019-05-17T02:52:12.590Z,96.24
2019-05-17T02:54:43.690Z,96.31
2019-05-17T02:57:14.122Z,96.39
2019-05-17T02:59:43.824Z,96.28
2019-05-17T03:02:13.167Z,96.73
2019-05-17T03:04:43.294Z,96.73
2019-05-17T03:07:13.729Z,97.06
2019-05-17T03:09:43.410Z,97.43
2019-05-17T03:12:13.072Z,97.47
2019-05-17T03:14:43.260Z,97.25
2019-05-17T03:17:14.028Z,96.94
2019-05-17T03:19:43.897Z,96.72
2019-05-17T03:22:13.419Z,96.77
2019-05-17T03:24:44.013Z,96.89
2019-05-17T03:27:13.826Z,97.11
2019-05-17T03:29:43.294Z,97.33
2019-05-17T03:32:17.107Z,97.68
2019-05-17T03:34:46.599Z,97.55
2019-05-17T03:37:16.690Z,97.42
2019-05-17T03:39:46.212Z,96.88
2019-05-17T03:42:15.565Z,96.63
2019-05-17T03:44:44.987Z,95.91
2019-05-17T03:47:14.349Z,95.50
2019-05-17T03:49:43.946Z,95.96
2019-05-17T03:52:13.825Z,95.67
2019-05-17T03:54:43.337Z,95.22
2019-05-17T03:57:13.448Z,94.97
2019-05-17T03:59:43.183Z,94.82
2019-05-17T04:02:12.745Z,94.96
2019-05-17T04:04:42.972Z,94.53
2019-05-17T04:07:12.885Z,94.30
2019-05-17T04:09:43.794Z,94.75
2019-05-17T04:12:13.766Z,94.33
2019-05-17T04:14:43.236Z,94.12
2019-05-17T04:17:13.252Z,95.04
2019-05-17T04:19:43.341Z,95.52
2019-05-17T04:22:13.867Z,96.08
2019-05-17T04:24:43.990Z,95.97
2019-05-17T04:27:13.848Z,96.53
2019-05-17T04:29:43.239Z,96.68
2019-05-17T04:32:13.124Z,96.58
2019-05-17T04:34:43.756Z,95.69
2019-05-17T04:37:13.340Z,95.78
2019-05-17T04:39:43.383Z,95.39
2019-05-17T04:42:13.567Z,94.77
2019-05-17T04:44:43.424Z,94.70
2019-05-17T04:47:13.540Z,93.90
2019-05-17T04:49:43.980Z,93.36
2019-05-17T04:52:13.840Z,92.41
2019-05-17T04:54:43.469Z,92.31
2019-05-17T04:57:13.324Z,91.92
2019-05-17T04:59:43.504Z,91.57
2019-05-17T05:02:13.448Z,91.15
2019-05-17T05:04:43.765Z,91.47
2019-05-17T05:07:13.858Z,91.86
2019-05-17T05:09:43.507Z,91.81
2019-05-17T05:12:12.856Z,92.11
2019-05-17T05:14:43.129Z,91.27
2019-05-17T05:17:13.041Z,91.12
2019-05-17T05:19:42.517Z,90.71
2019-05-17T05:22:13.536Z,90.37
2019-05-17T05:24:43.121Z,90.77
2019-05-17T05:27:12.512Z,90.57
2019-05-17T05:29:41.902Z,91.31
2019-05-17T05:32:11.867Z,91.18
2019-05-17T05:34:42.950Z,90.53
2019-05-17T05:37:12.682Z,90.91
2019-05-17T05:39:42.128Z,91.28
2019-05-17T05:42:14.011Z,90.57
2019-05-17T05:44:42.651Z,89.80
2019-05-17T05:47:12.008Z,90.06
2019-05-17T05:49:42.619Z,90.51
2019-05-17T05:52:12.562Z,89.80
2019-05-17T05:54:42.082Z,89.87
2019-05-17T05:57:12.611Z,88.95
2019-05-17T05:59:42.592Z,89.58
2019-05-17T06:02:12.463Z,89.34
2019-05-17T06:04:42.414Z,88.66
2019-05-17T06:07:12.867Z,88.35
2019-05-17T06:09:42.621Z,89.13
2019-05-17T06:12:23.347Z,88.32
2019-05-17T06:14:43.133Z,88.24
2019-05-17T06:17:12.737Z,87.69
2019-05-17T06:19:42.348Z,87.08
2019-05-17T06:22:12.123Z,87.34
2019-05-17T06:24:42.464Z,87.77
2019-05-17T06:27:12.428Z,87.17
2019-05-17T06:29:42.026Z,87.67
2019-05-17T06:32:11.978Z,87.70
2019-05-17T06:34:42.230Z,87.66
2019-05-17T06:37:13.321Z,87.24
2019-05-17T06:39:42.927Z,87.52
2019-05-17T06:42:12.312Z,87.51
2019-05-17T06:44:41.913Z,87.10
2019-05-17T06:47:11.915Z,87.45
2019-05-17T06:49:42.412Z,86.61
2019-05-17T06:52:11.953Z,87.01
2019-05-17T06:54:41.857Z,86.08
2019-05-17T06:57:12.804Z,84.83
2019-05-17T06:59:42.957Z,84.81
2019-05-17T07:02:12.292Z,84.77
2019-05-17T07:04:41.728Z,84.28
2019-05-17T07:07:26.538Z,84.35
2019-05-17T07:09:57.284Z,83.26
2019-05-17T07:12:26.956Z,83.26
2019-05-17T07:14:58.355Z,82.98
2019-05-17T07:17:27.491Z,81.62
2019-05-17T07:19:56.842Z,81.44
2019-05-17T07:22:26.218Z,81.18
2019-05-17T07:24:55.693Z,80.89
2019-05-17T07:27:37.834Z,81.96
2019-05-17T07:29:59.134Z,82.07
2019-05-17T07:32:29.701Z,81.82
2019-05-17T07:35:00.090Z,80.72
2019-05-17T07:37:30.311Z,80.85
2019-05-17T07:40:04.714Z,80.68
2019-05-17T07:42:31.658Z,81.35
2019-05-17T07:45:01.021Z,82.09
2019-05-17T07:47:30.422Z,82.97
2019-05-17T07:50:00.945Z,82.99
2019-05-17T07:52:30.821Z,82.04
2019-05-17T07:55:02.238Z,82.03
2019-05-17T07:57:31.294Z,80.96
2019-05-17T08:00:00.666Z,80.78
2019-05-17T08:02:30.752Z,81.84
2019-05-17T08:05:00.700Z,81.84
2019-05-17T08:07:30.327Z,81.35
2019-05-17T08:10:00.240Z,81.03
2019-05-17T08:12:30.469Z,81.29
2019-05-17T08:15:00.160Z,79.89
2019-05-17T08:17:30.483Z,79.51
2019-05-17T08:20:00.569Z,79.45
2019-05-17T08:22:30.289Z,77.44
2019-05-17T08:25:00.231Z,77.74
2019-05-17T08:27:29.980Z,77.08
2019-05-17T08:29:59.949Z,74.98
2019-05-17T08:32:31.552Z,75.18
2019-05-17T08:35:00.615Z,74.83
2019-05-17T08:37:30.383Z,74.34
2019-05-17T08:40:00.233Z,74.13
2019-05-17T08:42:30.086Z,72.95
2019-05-17T08:45:00.262Z,73.14
2019-05-17T08:47:30.146Z,73.73
2019-05-17T08:50:00.533Z,72.57
2019-05-17T08:52:30.074Z,72.57
2019-05-17T08:55:00.345Z,72.64
2019-05-17T08:57:30.457Z,71.59
2019-05-17T09:00:00.760Z,71.22
2019-05-17T09:02:30.564Z,69.69
2019-05-17T09:05:00.454Z,69.14
2019-05-17T09:07:30.044Z,69.52
2019-05-17T09:10:02.162Z,68.57
2019-05-17T09:12:31.556Z,69.47
2019-05-17T09:15:01.221Z,68.29
2019-05-17T09:17:30.990Z,68.36
2019-05-17T09:20:00.875Z,68.36
2019-05-17T09:22:30.870Z,68.19
2019-05-17T09:25:00.274Z,68.57
2019-05-17T09:27:30.126Z,68.36
2019-05-17T09:30:00.055Z,66.81
2019-05-17T09:32:29.813Z,66.16
2019-05-17T09:35:00.309Z,65.77
2019-05-17T09:37:30.488Z,65.37
2019-05-17T09:40:00.060Z,66.61
2019-05-17T09:42:29.959Z,64.26
2019-05-17T09:45:00.328Z,64.63
2019-05-17T09:47:30.187Z,65.98
2019-05-17T09:50:00.489Z,66.55
2019-05-17T09:52:30.255Z,66.25
2019-05-17T09:55:00.542Z,65.74
2019-05-17T09:57:30.226Z,65.34
2019-05-17T10:00:00.191Z,65.30
2019-05-17T10:02:29.737Z,64.35
2019-05-17T10:04:59.825Z,63.07
2019-05-17T10:07:29.949Z,63.87
2019-05-17T10:09:59.858Z,64.36
2019-05-17T10:12:29.302Z,64.53
2019-05-17T10:15:00.514Z,63.74
2019-05-17T10:17:29.723Z,63.73
2019-05-17T10:19:59.870Z,64.20
2019-05-17T10:22:30.391Z,63.80
2019-05-17T10:25:00.434Z,63.98
2019-05-17T10:30:11.285Z,63.62
2019-05-17T10:32:43.610Z,63.40
2019-05-17T10:35:21.657Z,64.24
2019-05-17T10:37:51.061Z,62.82
2019-05-17T10:40:21.445Z,63.24
2019-05-17T10:42:50.795Z,63.48
2019-05-17T10:45:20.338Z,62.76
2019-05-17T10:47:50.425Z,62.20
2019-05-17T10:50:21.155Z,62.13
2019-05-17T10:52:50.539Z,63.38
2019-05-17T10:55:20.152Z,61.89
2019-05-17T10:57:50.198Z,62.21
2019-05-17T11:00:20.203Z,61.97
2019-05-17T11:02:50.661Z,60.64
2019-05-17T11:05:20.381Z,59.95
2019-05-17T11:07:50.670Z,58.66
2019-05-17T11:10:21.129Z,57.29
2019-05-17T11:12:50.498Z,55.06
2019-05-17T11:15:20.854Z,54.30
2019-05-17T11:17:50.223Z,54.58
2019-05-17T11:20:20.268Z,56.07
2019-05-17T11:22:49.602Z,54.78
2019-05-17T11:25:18.990Z,55.80
2019-05-17T11:27:48.331Z,55.16
2019-05-17T11:30:18.390Z,53.47
2019-05-17T11:32:47.719Z,52.88
2019-05-17T11:35:17.088Z,51.27
2019-05-17T11:37:46.485Z,50.76
2019-05-17T11:40:16.461Z,50.06
2019-05-17T11:42:46.154Z,49.96
2019-05-17T11:45:27.126Z,49.64
2019-05-17T11:47:49.674Z,49.84
2019-05-17T11:50:19.234Z,50.34
2019-05-17T11:52:48.584Z,51.31
2019-05-17T11:55:17.994Z,52.04
2019-05-17T11:57:47.325Z,53.59
2019-05-17T12:00:19.134Z,52.75
2019-05-17T12:02:48.455Z,50.46
2019-05-17T12:05:17.823Z,50.46
2019-05-17T12:07:47.216Z,46.66
2019-05-17T12:10:16.956Z,45.88
2019-05-17T12:12:49.770Z,47.52
2019-05-17T12:15:19.766Z,48.79
2019-05-17T12:17:49.100Z,48.81
2019-05-17T12:20:18.549Z,48.45
2019-05-17T12:22:47.956Z,49.68
2019-05-17T12:25:17.438Z,49.79
2019-05-17T12:27:46.809Z,48.67
2019-05-17T12:30:17.645Z,48.84
2019-05-17T12:32:46.995Z,49.51
2019-05-17T12:35:16.376Z,49.06
2019-05-17T12:37:45.746Z,48.04
2019-05-17T12:40:15.317Z,48.71
2019-05-17T12:42:44.642Z,49.43
2019-05-17T12:45:14.134Z,48.41
2019-05-17T12:47:43.571Z,48.12
2019-05-17T12:50:13.222Z,49.70
2019-05-17T12:52:42.590Z,52.85
2019-05-17T12:55:12.182Z,54.66
2019-05-17T12:57:41.504Z,56.10
2019-05-17T13:00:12.603Z,57.54
2019-05-17T13:02:42.005Z,56.58
2019-05-17T13:05:11.591Z,53.55
2019-05-17T13:07:40.954Z,50.80
2019-05-17T13:10:10.727Z,50.89
2019-05-17T13:12:40.074Z,48.53
2019-05-17T13:15:09.576Z,48.54
2019-05-17T13:17:38.957Z,47.81
2019-05-17T13:20:09.496Z,47.88
2019-05-17T13:22:39.326Z,47.85
2019-05-17T13:25:09.353Z,47.77
2019-05-17T13:27:39.498Z,47.44
2019-05-17T13:30:10.559Z,47.40
2019-05-17T13:32:39.935Z,47.32
2019-05-17T13:35:10.594Z,46.67
2019-05-17T13:37:40.056Z,49.48
2019-05-17T13:40:10.028Z,50.97
2019-05-17T13:42:39.488Z,52.25
2019-05-17T13:45:09.512Z,54.37
2019-05-17T13:47:39.058Z,55.26
2019-05-17T13:50:09.589Z,57.38
2019-05-17T13:52:38.952Z,58.19
2019-05-17T13:55:08.661Z,59.72
2019-05-17T13:57:38.033Z,60.37
2019-05-17T14:00:08.481Z,61.49
2019-05-17T14:02:37.960Z,61.69
2019-05-17T14:05:07.799Z,62.93
2019-05-17T14:07:37.163Z,62.86
2019-05-17T14:10:07.876Z,63.50
2019-05-17T14:12:37.174Z,64.44
2019-05-17T14:15:07.515Z,65.48
2019-05-17T14:17:36.973Z,65.76
2019-05-17T14:20:06.675Z,67.54
2019-05-17T14:22:36.163Z,69.84
2019-05-17T14:25:05.824Z,73.68
2019-05-17T14:27:35.181Z,74.42
2019-05-17T14:30:05.133Z,74.89
2019-05-17T14:32:34.536Z,75.95
2019-05-17T14:35:04.140Z,77.75
2019-05-17T14:37:33.489Z,79.57
2019-05-17T14:40:02.909Z,80.58
2019-05-17T14:42:32.259Z,81.39
2019-05-17T14:45:01.733Z,81.09
2019-05-17T14:47:31.685Z,81.26
2019-05-17T14:50:01.154Z,82.67
2019-05-17T14:52:30.536Z,84.07
2019-05-17T14:54:59.921Z,81.79
2019-05-17T14:57:29.329Z,84.73
2019-05-17T14:59:58.704Z,82.04
2019-05-17T15:02:28.086Z,85.36
2019-05-17T15:04:57.493Z,86.31
2019-05-17T15:07:26.844Z,84.82
2019-05-17T15:09:56.320Z,85.27
2019-05-17T15:12:28.766Z,85.78
2019-05-17T15:14:56.823Z,86.13
2019-05-17T15:17:26.223Z,87.01
2019-05-17T15:19:55.664Z,86.01
2019-05-17T15:22:25.070Z,85.55
2019-05-17T15:24:54.390Z,86.30
2019-05-17T15:27:23.962Z,85.59
2019-05-17T15:29:53.300Z,86.79
2019-05-17T15:32:22.661Z,88.40
2019-05-17T15:34:52.122Z,89.00
2019-05-17T15:37:21.459Z,87.39
2019-05-17T15:39:50.796Z,87.56
2019-05-17T15:42:20.174Z,89.19
2019-05-17T15:44:49.526Z,89.67
2019-05-17T15:47:19.082Z,89.93
2019-05-17T15:49:48.578Z,90.77
2019-05-17T15:52:18.044Z,88.35
2019-05-17T15:54:48.709Z,90.49
2019-05-17T15:57:18.331Z,90.87
2019-05-17T15:59:47.750Z,90.39
2019-05-17T16:02:17.164Z,89.32
2019-05-17T16:04:46.549Z,89.37
2019-05-17T16:07:16.019Z,89.84
2019-05-17T16:09:45.507Z,90.30
2019-05-17T16:12:14.833Z,90.70
2019-05-17T16:14:44.195Z,90.03
2019-05-17T16:17:13.552Z,90.93
2019-05-17T16:19:43.112Z,93.22
2019-05-17T16:22:12.487Z,93.47
2019-05-17T16:24:41.944Z,93.03
2019-05-17T16:27:12.709Z,93.74
2019-05-17T16:29:42.366Z,93.12
2019-05-17T16:32:11.793Z,93.20
2019-05-17T16:34:41.172Z,91.85
2019-05-17T16:37:10.576Z,93.04
2019-05-17T16:39:39.972Z,90.82
2019-05-17T16:42:09.374Z,91.29
2019-05-17T16:44:38.768Z,88.44
2019-05-17T16:47:08.179Z,88.29
2019-05-17T16:49:37.652Z,85.21
2019-05-17T16:52:06.955Z,85.65
2019-05-17T16:54:36.322Z,83.89
2019-05-17T16:57:05.804Z,83.73
2019-05-17T16:59:35.246Z,84.53
2019-05-17T17:02:04.755Z,83.93
2019-05-17T17:04:34.150Z,82.85
2019-05-17T17:07:03.618Z,84.35
2019-05-17T17:09:32.959Z,83.75
2019-05-17T17:12:02.320Z,85.40
2019-05-17T17:14:31.803Z,85.90
2019-05-17T17:17:01.123Z,85.75
2019-05-17T17:19:30.496Z,85.67
2019-05-17T17:21:59.809Z,86.18
2019-05-17T17:24:29.160Z,84.47
2019-05-17T17:26:58.520Z,85.07
2019-05-17T17:29:27.972Z,84.60
2019-05-17T17:31:57.322Z,84.27
2019-05-17T17:34:26.668Z,84.95
2019-05-17T17:36:56.067Z,85.15
2019-05-17T17:39:25.410Z,85.40
2019-05-17T17:41:54.839Z,87.09
2019-05-17T17:44:24.181Z,86.58
2019-05-17T17:46:53.522Z,86.55
2019-05-17T17:49:22.896Z,86.54
2019-05-17T17:51:52.237Z,86.88
2019-05-17T17:54:24.170Z,85.94
2019-05-17T17:56:54.192Z,85.75
2019-05-17T17:59:23.574Z,86.84
2019-05-17T18:01:52.938Z,86.54
2019-05-17T18:04:22.339Z,86.51
2019-05-17T18:06:51.709Z,86.81
2019-05-17T18:09:23.593Z,88.38
2019-05-17T18:11:53.025Z,88.94
2019-05-17T18:14:22.423Z,90.86
2019-05-17T18:16:51.753Z,90.46
2019-05-17T18:19:21.394Z,92.04
2019-05-17T18:21:51.437Z,92.45
2019-05-17T18:24:20.881Z,92.45
2019-05-17T18:26:50.238Z,92.45
2019-05-17T18:29:19.611Z,92.29
2019-05-17T18:31:48.945Z,92.72
2019-05-17T18:34:18.380Z,91.91
2019-05-17T18:36:47.748Z,93.26
2019-05-17T18:39:17.096Z,93.09
2019-05-17T18:41:46.456Z,92.30
2019-05-17T18:44:27.089Z,92.99
2019-05-17T18:46:47.130Z,93.30
2019-05-17T18:49:16.492Z,92.70
2019-05-17T18:51:45.905Z,91.69
2019-05-17T18:54:17.052Z,93.45
2019-05-17T18:56:46.431Z,94.34
2019-05-17T18:59:17.197Z,94.96
2019-05-17T19:01:46.667Z,94.52
2019-05-17T19:04:16.092Z,93.98
2019-05-17T19:06:45.750Z,93.98
2019-05-17T19:09:15.172Z,94.11
2019-05-17T19:11:44.586Z,95.59
2019-05-17T19:14:13.996Z,95.54
2019-05-17T19:16:43.343Z,96.06
2019-05-17T19:19:12.733Z,96.41
2019-05-17T19:21:42.204Z,95.81
2019-05-17T19:24:11.577Z,94.99
2019-05-17T19:26:41.225Z,95.91
2019-05-17T19:29:10.699Z,96.26
2019-05-17T19:31:40.325Z,95.96
2019-05-17T19:34:09.667Z,96.33
2019-05-17T19:36:41.541Z,96.76
2019-05-17T19:39:10.148Z,96.29
2019-05-17T19:41:40.888Z,95.45
2019-05-17T19:44:10.235Z,96.37
2019-05-17T19:46:41.429Z,96.46
2019-05-17T19:49:10.887Z,96.70
2019-05-17T19:51:40.725Z,97.00
2019-05-17T19:54:10.171Z,97.69
2019-05-17T19:56:41.014Z,97.66
2019-05-17T19:59:10.414Z,97.27
2019-05-17T20:01:39.758Z,97.16
2019-05-17T20:04:09.291Z,96.74
2019-05-17T20:06:38.668Z,96.93
2019-05-17T20:09:08.042Z,96.58
2019-05-17T20:11:37.447Z,97.28
2019-05-17T20:14:06.869Z,96.75
2019-05-17T20:16:36.220Z,96.39
2019-05-17T20:19:05.587Z,96.39
2019-05-17T20:21:34.956Z,96.45
2019-05-17T20:24:04.323Z,96.57
2019-05-17T20:26:33.660Z,96.58
2019-05-17T20:29:04.055Z,96.68
2019-05-17T20:31:33.412Z,97.06
2019-05-17T20:34:02.869Z,97.58
2019-05-17T20:36:32.250Z,97.61
2019-05-17T20:39:01.684Z,97.50
2019-05-17T20:41:31.058Z,97.49
2019-05-17T20:44:00.458Z,97.92
2019-05-17T20:46:30.700Z,98.15
2019-05-17T20:49:00.212Z,98.28
2019-05-17T20:51:29.641Z,98.62
2019-05-17T20:53:59.004Z,98.98
2019-05-17T20:56:32.963Z,99.28
2019-05-17T20:58:59.442Z,99.48
2019-05-17T21:01:28.878Z,98.93
2019-05-17T21:03:58.278Z,98.84
2019-05-17T21:06:27.630Z,98.76
2019-05-17T21:08:56.989Z,98.97
2019-05-17T21:11:26.374Z,99.23
2019-05-17T21:13:55.770Z,99.31
2019-05-17T21:16:25.164Z,99.62
2019-05-17T21:18:54.533Z,99.26
2019-05-17T21:21:23.898Z,99.27
2019-05-17T21:23:53.302Z,99.01
2019-05-17T21:26:22.743Z,98.86
2019-05-17T21:28:52.167Z,98.78
2019-05-17T21:31:22.562Z,99.21
2019-05-17T21:33:51.928Z,98.91
2019-05-17T21:36:21.286Z,99.02
2019-05-17T21:38:50.670Z,99.67
2019-05-17T21:41:20.064Z,99.51
2019-05-17T21:43:49.421Z,99.44
2019-05-17T21:46:18.779Z,99.38
2019-05-17T21:48:48.176Z,99.62
2019-05-17T21:51:17.582Z,99.77
2019-05-17T21:53:46.962Z,99.39
2019-05-17T21:56:16.303Z,99.27
2019-05-17T21:58:45.636Z,99.60
2019-05-17T22:01:21.922Z,99.71
2019-05-17T22:03:51.391Z,99.41
2019-05-17T22:06:20.783Z,100.00
2019-05-17T22:08:50.130Z,100.00
2019-05-17T22:11:19.704Z,100.00
2019-05-17T22:13:49.028Z,99.96
2019-05-17T22:16:19.961Z,99.66
2019-05-17T22:18:49.642Z,100.00
2019-05-17T22:21:19.007Z,100.00
2019-05-17T22:23:48.365Z,100.00
2019-05-17T22:26:17.732Z,100.00
2019-05-17T22:28:47.117Z,100.00
2019-05-17T22:31:16.541Z,100.00
2019-05-17T22:33:45.879Z,100.00
2019-05-17T22:36:15.215Z,100.00
2019-05-17T22:38:44.582Z,100.00
2019-05-17T22:41:13.964Z,100.00
2019-05-17T22:43:43.305Z,100.00
2019-05-17T22:46:12.802Z,100.00
2019-05-17T22:48:42.205Z,100.00
2019-05-17T22:51:11.685Z,100.00
2019-05-17T22:53:41.048Z,100.00
2019-05-17T22:56:10.386Z,100.00
2019-05-17T22:58:39.739Z,100.00
2019-05-17T23:01:09.153Z,100.00
2019-05-17T23:03:38.513Z,100.00
2019-05-17T23:06:07.959Z,100.00
2019-05-17T23:08:37.403Z,100.00
2019-05-17T23:11:06.798Z,100.00
2019-05-17T23:13:36.112Z,100.00
2019-05-17T23:16:07.708Z,100.00
2019-05-17T23:18:37.570Z,100.00
2019-05-17T23:21:06.948Z,100.00
2019-05-17T23:23:36.342Z,100.00
2019-05-17T23:26:05.808Z,100.00
2019-05-17T23:28:35.126Z,100.00
2019-05-17T23:31:04.524Z,100.00
2019-05-17T23:33:33.870Z,100.00
2019-05-17T23:36:03.338Z,100.00
2019-05-17T23:38:32.753Z,100.00
2019-05-17T23:41:02.153Z,100.00
2019-05-17T23:43:31.517Z,100.00
2019-05-17T23:46:00.895Z,100.00
2019-05-17T23:48:30.301Z,100.00
2019-05-17T23:50:59.668Z,100.00
2019-05-17T23:53:29.009Z,100.00
2019-05-17T23:55:58.410Z,100.00
2019-05-17T23:58:27.827Z,100.00
